Time;durP1;ratioP1;P1;durP2;ratioP2;P2;SDS_P1;SDS_P2;PMS_P1;PMS_P2;Temp;Humidity;BMP_temperature;BMP_pressure;BME280_temperature;BME280_humidity;BME280_pressure;Samples;Min_cycle;Max_cycle;Signal;HPM_P1;HPM_P2
2022/09/15 00:00:24;;;;;;;5.78;2.90;;;12.70;99.90;;;;;;5074871;28;20043;-65
2022/09/15 00:02:50;;;;;;;8.98;3.00;;;12.50;99.90;;;;;;5076425;28;20116;-62
2022/09/15 00:05:17;;;;;;;4.40;3.00;;;12.50;99.90;;;;;;5076458;28;20448;-62
2022/09/15 00:07:43;;;;;;;6.65;2.83;;;;;;;;;;5076060;28;20036;-62
2022/09/15 00:10:10;;;;;;;4.55;2.90;;;12.80;99.90;;;;;;5076224;28;20102;-62
2022/09/15 00:12:36;;;;;;;4.93;3.00;;;12.00;99.90;;;;;;5075906;28;20085;-62
2022/09/15 00:15:04;;;;;;;8.02;3.25;;;11.80;99.90;;;;;;5075948;28;20032;-62
2022/09/15 00:17:30;;;;;;;4.32;2.80;;;;;;;;;;5075647;28;20044;-62
2022/09/15 00:19:57;;;;;;;8.85;2.90;;;;;;;;;;5076032;28;20059;-62
2022/09/15 00:22:24;;;;;;;7.00;2.72;;;12.40;99.90;;;;;;5074712;28;20051;-62
2022/09/15 00:24:53;;;;;;;4.05;2.75;;;12.30;99.90;;;;;;5074632;28;20078;-57
2022/09/15 00:27:18;;;;;;;5.78;3.00;;;12.30;99.90;;;;;;5075982;28;20045;-57
2022/09/15 00:29:44;;;;;;;8.20;2.83;;;12.30;99.90;;;;;;5075626;28;20089;-57
2022/09/15 00:32:10;;;;;;;5.65;2.80;;;12.40;99.90;;;;;;5075449;28;20045;-57
2022/09/15 00:34:39;;;;;;;5.32;2.83;;;12.30;99.90;;;;;;5075553;28;20123;-57
2022/09/15 00:37:06;;;;;;;6.03;3.00;;;;;;;;;;5075700;28;20400;-57
2022/09/15 00:39:32;;;;;;;6.57;2.92;;;12.00;99.90;;;;;;5075722;28;20033;-57
2022/09/15 00:41:59;;;;;;;6.05;3.00;;;12.40;99.90;;;;;;5075481;28;20530;-57
2022/09/15 00:44:48;;;;;;;7.15;3.13;;;12.30;99.90;;;;;;5075436;28;20090;-57
2022/09/15 00:47:15;;;;;;;5.47;3.30;;;12.50;99.90;;;;;;5075437;28;20067;-57
2022/09/15 00:49:42;;;;;;;7.43;3.35;;;12.50;99.90;;;;;;5075299;28;20052;-57
2022/09/15 00:52:28;;;;;;;7.20;3.63;;;11.70;99.90;;;;;;5075215;28;20036;-57
2022/09/15 00:54:59;;;;;;;5.50;3.60;;;12.40;99.90;;;;;;5074808;28;20044;-57
2022/09/15 00:58:00;;;;;;;4.05;3.20;;;12.40;99.90;;;;;;5075201;28;20037;-57
2022/09/15 01:00:27;;;;;;;5.72;3.08;;;12.30;99.90;;;;;;5074057;28;20098;-57
2022/09/15 01:02:57;;;;;;;5.43;3.20;;;12.50;99.90;;;;;;5075434;28;20040;-57
2022/09/15 01:05:34;;;;;;;7.22;3.15;;;12.40;99.90;;;;;;5075398;28;20040;-57
2022/09/15 01:08:08;;;;;;;5.53;3.20;;;12.70;99.90;;;;;;5075117;28;20052;-57
2022/09/15 01:10:37;;;;;;;5.32;3.25;;;11.80;99.90;;;;;;5075259;28;20045;-57
2022/09/15 01:13:12;;;;;;;9.63;3.22;;;12.60;99.90;;;;;;5075045;28;20071;-57
2022/09/15 01:16:05;;;;;;;6.05;3.35;;;11.90;99.90;;;;;;5074283;28;20500;-57
2022/09/15 01:19:26;;;;;;;6.82;3.30;;;12.80;99.90;;;;;;5074761;28;20040;-58
2022/09/15 01:22:04;;;;;;;4.82;3.15;;;12.70;99.90;;;;;;5019980;28;20101;-57
2022/09/15 01:24:44;;;;;;;5.80;3.20;;;12.40;99.90;;;;;;5052564;28;20104;-57
2022/09/15 01:27:43;;;;;;;6.75;3.80;;;13.60;99.90;;;;;;5052493;28;20052;-57
2022/09/15 01:30:21;;;;;;;5.93;3.80;;;14.00;99.90;;;;;;5052518;28;20099;-57
2022/09/15 01:33:05;;;;;;;8.32;4.00;;;13.10;99.90;;;;;;5052262;28;20048;-57
2022/09/15 01:35:45;;;;;;;7.18;4.35;;;13.20;99.90;;;;;;5052227;28;20049;-57
2022/09/15 01:38:36;;;;;;;4.72;4.03;;;14.00;99.90;;;;;;5052312;28;20053;-57
2022/09/15 01:41:24;;;;;;;12.02;4.10;;;13.10;99.90;;;;;;5052169;28;20032;-57
2022/09/15 01:43:57;;;;;;;12.00;4.25;;;13.30;99.90;;;;;;5052178;28;20041;-57
2022/09/15 01:46:28;;;;;;;7.40;4.30;;;13.10;99.90;;;;;;5052118;28;20049;-57
2022/09/15 01:48:59;;;;;;;6.22;3.92;;;13.10;99.90;;;;;;5052098;28;20067;-57
2022/09/15 01:51:28;;;;;;;7.90;3.92;;;13.10;99.90;;;;;;5051673;28;20408;-57
2022/09/15 01:53:58;;;;;;;5.93;4.00;;;12.70;99.90;;;;;;5051944;28;20123;-57
2022/09/15 01:56:25;;;;;;;6.47;3.85;;;;;;;;;;5035664;28;20048;-57
2022/09/15 01:58:51;;;;;;;9.30;4.20;;;13.50;99.90;;;;;;5067778;28;20095;-57
2022/09/15 02:01:25;;;;;;;5.85;3.80;;;13.40;99.90;;;;;;5074209;28;20045;-57
2022/09/15 02:04:07;;;;;;;7.78;3.92;;;13.40;99.90;;;;;;5073990;28;20388;-57
2022/09/15 02:06:45;;;;;;;7.75;4.47;;;13.50;99.90;;;;;;5074036;28;20037;-57
2022/09/15 02:09:19;;;;;;;9.50;3.60;;;13.50;99.90;;;;;;5073525;28;20067;-57
2022/09/15 02:11:59;;;;;;;6.28;3.30;;;13.40;99.90;;;;;;5074056;28;20044;-57
2022/09/15 02:14:46;;;;;;;6.60;2.90;;;12.80;99.90;;;;;;5073580;28;20044;-57
2022/09/15 02:17:19;;;;;;;7.07;3.20;;;13.50;99.90;;;;;;5073608;28;20400;-57
2022/09/15 02:19:50;;;;;;;10.90;3.33;;;13.50;99.90;;;;;;5073621;28;20104;-57
2022/09/15 02:22:28;;;;;;;8.13;3.35;;;13.50;99.90;;;;;;5073498;28;20039;-57
2022/09/15 02:25:12;;;;;;;7.80;3.33;;;12.90;99.90;;;;;;5073428;28;20044;-57
2022/09/15 02:27:47;;;;;;;9.15;3.40;;;13.70;99.90;;;;;;5073369;28;20048;-57
2022/09/15 02:30:16;;;;;;;10.18;3.33;;;13.70;99.90;;;;;;5073586;28;20060;-57
2022/09/15 02:32:55;;;;;;;5.57;3.22;;;13.60;99.90;;;;;;5073363;28;20098;-57
2022/09/15 02:35:24;;;;;;;6.95;3.42;;;14.30;99.90;;;;;;5073311;28;20570;-57
2022/09/15 02:37:55;;;;;;;9.30;3.35;;;13.40;99.90;;;;;;5073322;28;20562;-57
2022/09/15 02:40:22;;;;;;;5.40;3.17;;;13.70;99.90;;;;;;5073468;28;20032;-57
2022/09/15 02:42:57;;;;;;;10.55;3.17;;;13.70;99.90;;;;;;5073597;28;20040;-57
2022/09/15 02:45:24;;;;;;;7.05;3.40;;;13.90;99.90;;;;;;5072999;28;20115;-57
2022/09/15 02:47:50;;;;;;;7.57;3.70;;;;;;;;;;5073500;28;20051;-57
2022/09/15 02:50:20;;;;;;;11.23;3.60;;;13.20;99.90;;;;;;5073208;28;20040;-57
2022/09/15 02:52:46;;;;;;;6.38;3.33;;;13.70;99.90;;;;;;5073184;28;20037;-57
2022/09/15 02:55:12;;;;;;;7.28;3.55;;;;;;;;;;5073143;28;20039;-57
2022/09/15 02:57:37;;;;;;;9.27;3.50;;;14.50;99.90;;;;;;5073045;28;20097;-57
2022/09/15 03:00:17;;;;;;;9.30;3.70;;;14.10;99.90;;;;;;5073357;28;20384;-57
2022/09/15 03:02:50;;;;;;;8.75;3.70;;;13.90;99.90;;;;;;5073194;28;20048;-57
2022/09/15 03:05:27;;;;;;;6.88;3.30;;;13.30;99.90;;;;;;5071863;28;20611;-57
2022/09/15 03:07:55;;;;;;;6.57;3.40;;;13.80;99.90;;;;;;5071893;28;20040;-57
2022/09/15 03:10:23;;;;;;;7.15;3.47;;;13.70;99.90;;;;;;5072916;28;20040;-57
2022/09/15 03:12:53;;;;;;;9.82;3.40;;;13.60;99.90;;;;;;5073032;28;20529;-57
2022/09/15 03:15:22;;;;;;;10.02;3.60;;;13.90;99.90;;;;;;5072976;28;20044;-57
2022/09/15 03:17:54;;;;;;;10.70;3.70;;;13.10;99.90;;;;;;5073030;28;20040;-57
2022/09/15 03:20:26;;;;;;;8.45;3.38;;;13.70;99.90;;;;;;5072941;28;20499;-57
2022/09/15 03:22:53;;;;;;;10.85;3.20;;;13.60;99.90;;;;;;5073285;28;20055;-57
2022/09/15 03:25:20;;;;;;;11.55;3.20;;;13.50;99.90;;;;;;5072874;28;20388;-57
2022/09/15 03:27:46;;;;;;;8.80;2.65;;;13.70;99.90;;;;;;5072850;28;20123;-57
2022/09/15 03:30:15;;;;;;;6.55;2.33;;;13.60;99.90;;;;;;5072989;28;20055;-57
2022/09/15 03:32:41;;;;;;;4.82;2.00;;;;;;;;;;5072898;28;20036;-57
2022/09/15 03:35:07;;;;;;;6.55;2.00;;;;;;;;;;5072681;28;20511;-57
2022/09/15 03:37:33;;;;;;;7.28;2.05;;;13.80;99.90;;;;;;5072807;28;20087;-57
2022/09/15 03:40:02;;;;;;;6.50;1.90;;;13.60;99.90;;;;;;5073044;28;20036;-57
2022/09/15 03:42:28;;;;;;;8.63;2.10;;;13.60;99.90;;;;;;5072888;28;20094;-57
2022/09/15 03:44:54;;;;;;;7.85;2.00;;;13.40;99.90;;;;;;5072834;28;20460;-57
2022/09/15 03:47:20;;;;;;;12.05;2.25;;;;;;;;;;5072383;28;20037;-57
2022/09/15 03:49:46;;;;;;;6.00;2.47;;;;;;;;;;5070819;28;20037;-58
2022/09/15 03:52:12;;;;;;;6.68;1.98;;;13.70;99.90;;;;;;5070587;28;20052;-57
2022/09/15 03:54:38;;;;;;;7.78;2.03;;;;;;;;;;5070800;28;20059;-57
2022/09/15 03:57:06;;;;;;;9.00;1.90;;;13.60;99.90;;;;;;5070914;28;20090;-57
2022/09/15 03:59:32;;;;;;;8.07;2.15;;;;;;;;;;5074416;28;20106;-57
2022/09/15 04:01:58;;;;;;;13.27;2.63;;;13.60;99.90;;;;;;5074461;28;20111;-57
2022/09/15 04:04:24;;;;;;;10.63;2.50;;;13.70;99.90;;;;;;5075718;28;20051;-58
2022/09/15 04:06:50;;;;;;;13.02;2.30;;;13.60;99.90;;;;;;5075988;28;20036;-57
2022/09/15 04:09:20;;;;;;;9.00;2.50;;;13.50;99.90;;;;;;5075641;28;20067;-58
2022/09/15 04:11:46;;;;;;;6.32;2.45;;;13.60;99.90;;;;;;5076019;28;20052;-57
2022/09/15 04:14:15;;;;;;;8.45;2.42;;;14.40;99.90;;;;;;5075087;28;20040;-57
2022/09/15 04:16:40;;;;;;;6.05;2.30;;;14.00;99.90;;;;;;5074807;28;20082;-57
2022/09/15 04:19:07;;;;;;;6.38;2.55;;;;;;;;;;5075830;28;20036;-57
2022/09/15 04:21:36;;;;;;;9.55;2.53;;;;;;;;;;5075950;28;20111;-57
2022/09/15 04:24:04;;;;;;;8.00;2.40;;;13.80;99.90;;;;;;5074461;28;20036;-57
2022/09/15 04:26:33;;;;;;;7.40;2.17;;;13.60;99.90;;;;;;5075748;28;20098;-57
2022/09/15 04:29:09;;;;;;;10.77;2.20;;;13.10;99.90;;;;;;5076361;28;20051;-57
2022/09/15 04:31:35;;;;;;;11.18;2.58;;;13.80;99.90;;;;;;5075720;28;20071;-57
2022/09/15 04:34:04;;;;;;;9.00;2.10;;;13.40;99.90;;;;;;5075660;28;20086;-57
2022/09/15 04:36:39;;;;;;;8.35;2.20;;;13.90;99.90;;;;;;5075858;28;20037;-57
2022/09/15 04:39:06;;;;;;;9.00;2.08;;;;;;;;;;5075836;28;20062;-57
2022/09/15 04:41:32;;;;;;;11.07;2.00;;;13.80;99.90;;;;;;5074612;28;20061;-57
2022/09/15 04:43:58;;;;;;;8.93;2.55;;;14.10;99.90;;;;;;5075469;28;20103;-57
2022/09/15 04:46:26;;;;;;;12.75;2.22;;;13.70;99.90;;;;;;5075603;28;20037;-57
2022/09/15 04:48:53;;;;;;;6.95;2.03;;;;;;;;;;5074187;28;20077;-57
2022/09/15 04:51:20;;;;;;;8.77;2.20;;;13.80;99.90;;;;;;5075388;28;20047;-57
2022/09/15 04:53:46;;;;;;;9.00;2.35;;;13.90;99.90;;;;;;5074025;28;20051;-57
2022/09/15 04:56:16;;;;;;;11.13;2.30;;;13.50;99.90;;;;;;5075165;28;20489;-57
2022/09/15 04:58:44;;;;;;;13.60;2.20;;;13.80;99.90;;;;;;5075143;28;20078;-57
2022/09/15 05:01:17;;;;;;;12.32;2.28;;;13.70;99.90;;;;;;5073896;28;20044;-57
2022/09/15 05:03:45;;;;;;;6.97;2.22;;;13.80;99.90;;;;;;5074697;28;20504;-57
2022/09/15 05:06:15;;;;;;;11.45;2.03;;;13.90;99.90;;;;;;5075341;28;20070;-57
2022/09/15 05:08:41;;;;;;;8.98;2.47;;;13.70;99.90;;;;;;5074593;28;20224;-57
2022/09/15 05:11:10;;;;;;;10.07;2.30;;;13.80;99.90;;;;;;5074459;28;20186;-57
2022/09/15 05:13:37;;;;;;;11.00;2.28;;;13.80;99.90;;;;;;5075023;28;20093;-57
2022/09/15 05:16:05;;;;;;;6.93;2.53;;;13.80;99.90;;;;;;5074851;28;20456;-57
2022/09/15 05:18:32;;;;;;;7.68;2.65;;;13.80;99.90;;;;;;5074927;28;20048;-57
2022/09/15 05:21:02;;;;;;;7.57;2.38;;;13.70;99.90;;;;;;5075004;28;20060;-57
2022/09/15 05:23:28;;;;;;;6.65;2.42;;;13.80;99.90;;;;;;5074161;28;20055;-57
2022/09/15 05:26:00;;;;;;;9.43;2.22;;;13.80;99.90;;;;;;5074414;28;20080;-57
2022/09/15 05:28:26;;;;;;;8.10;2.22;;;13.40;99.90;;;;;;5074656;28;20052;-57
2022/09/15 05:30:53;;;;;;;7.80;2.38;;;13.60;99.90;;;;;;5074689;28;20476;-57
2022/09/15 05:33:23;;;;;;;7.70;2.63;;;;;;;;;;5074384;28;20040;-57
2022/09/15 05:35:53;;;;;;;10.07;3.17;;;13.80;99.90;;;;;;5074283;28;20472;-57
2022/09/15 05:38:19;;;;;;;11.18;2.72;;;;;;;;;;5074266;28;20078;-57
2022/09/15 05:40:45;;;;;;;10.55;2.53;;;13.70;99.90;;;;;;5074253;28;20062;-57
2022/09/15 05:43:12;;;;;;;8.65;2.70;;;14.70;99.90;;;;;;5074486;28;20032;-57
2022/09/15 05:45:40;;;;;;;13.52;2.60;;;13.90;99.90;;;;;;5074017;28;20101;-63
2022/09/15 05:48:06;;;;;;;9.55;2.63;;;;;;;;;;5074068;28;20080;-63
2022/09/15 05:50:33;;;;;;;6.97;2.47;;;14.00;99.90;;;;;;5074138;28;20037;-62
2022/09/15 05:52:59;;;;;;;8.25;2.40;;;;;;;;;;5073909;28;20032;-62
2022/09/15 05:55:25;;;;;;;12.20;2.55;;;13.90;99.90;;;;;;5074290;28;20043;-62
2022/09/15 05:57:52;;;;;;;8.52;2.40;;;14.00;99.90;;;;;;5073810;28;20040;-62
2022/09/15 06:00:21;;;;;;;8.38;2.60;;;13.20;99.90;;;;;;5072833;28;20040;-62
2022/09/15 06:02:46;;;;;;;6.68;2.38;;;13.70;99.90;;;;;;5073885;28;20416;-62
2022/09/15 06:05:12;;;;;;;9.93;2.47;;;13.90;99.90;;;;;;5074263;28;20033;-62
2022/09/15 06:07:40;;;;;;;12.98;4.43;;;14.10;99.90;;;;;;5073969;28;20044;-62
2022/09/15 06:10:06;;;;;;;10.23;4.28;;;14.10;99.90;;;;;;5073425;28;20393;-63
2022/09/15 06:12:31;;;;;;;11.02;3.15;;;14.00;99.90;;;;;;5066579;28;20115;-62
2022/09/15 06:14:58;;;;;;;12.15;3.50;;;14.20;99.90;;;;;;5064331;28;20496;-62
2022/09/15 06:17:24;;;;;;;8.85;2.05;;;14.20;99.90;;;;;;5072185;28;20404;-62
2022/09/15 06:19:53;;;;;;;10.70;2.13;;;;;;;;;;5071899;28;20036;-62
2022/09/15 06:22:19;;;;;;;14.63;2.63;;;13.80;99.90;;;;;;5072264;28;20044;-62
2022/09/15 06:24:45;;;;;;;7.68;2.33;;;;;;;;;;5072456;28;20032;-62
2022/09/15 06:27:12;;;;;;;9.55;2.00;;;14.50;99.90;;;;;;5070905;28;20059;-62
2022/09/15 06:29:40;;;;;;;10.60;2.17;;;14.70;99.90;;;;;;5072596;28;20502;-62
2022/09/15 06:32:06;;;;;;;7.72;2.03;;;15.50;99.90;;;;;;5068070;28;20036;-62
2022/09/15 06:34:34;;;;;;;8.80;1.90;;;16.20;99.90;;;;;;5063903;28;20040;-63
2022/09/15 06:36:59;;;;;;;9.52;1.95;;;18.00;99.90;;;;;;5073308;28;20042;-63
2022/09/15 06:39:26;;;;;;;10.85;2.13;;;18.00;99.90;;;;;;5073254;28;20048;-63
2022/09/15 06:41:52;;;;;;;16.20;2.30;;;20.60;99.90;;;;;;5073260;28;20090;-63
2022/09/15 06:44:19;;;;;;;8.48;2.17;;;22.00;99.90;;;;;;5072540;28;20024;-63
2022/09/15 06:46:46;;;;;;;8.13;2.08;;;22.60;99.90;;;;;;5071962;28;20399;-63
2022/09/15 06:49:14;;;;;;;10.43;2.38;;;22.60;99.90;;;;;;5072372;28;20048;-64
2022/09/15 06:51:40;;;;;;;10.70;2.22;;;21.90;99.90;;;;;;5072212;28;20039;-63
2022/09/15 06:54:06;;;;;;;7.95;1.98;;;21.60;99.90;;;;;;5071480;28;20048;-63
2022/09/15 06:56:33;;;;;;;8.23;1.90;;;21.10;99.90;;;;;;5071886;28;20044;-63
2022/09/15 06:58:59;;;;;;;10.52;3.25;;;21.50;99.90;;;;;;5071649;28;20036;-63
2022/09/15 07:01:27;;;;;;;9.13;2.28;;;20.60;99.90;;;;;;5071529;28;20044;-64
2022/09/15 07:03:58;;;;;;;9.57;2.20;;;20.80;99.90;;;;;;5072098;28;20078;-63
2022/09/15 07:06:31;;;;;;;9.63;2.05;;;20.60;99.90;;;;;;5068576;28;20053;-63
2022/09/15 07:08:57;;;;;;;10.98;2.10;;;21.00;99.90;;;;;;5070330;28;20063;-63
2022/09/15 07:11:25;;;;;;;12.20;2.08;;;21.10;99.90;;;;;;5071604;28;20044;-64
2022/09/15 07:13:51;;;;;;;9.70;1.80;;;20.80;99.90;;;;;;5071955;28;20111;-64
2022/09/15 07:16:18;;;;;;;9.35;2.00;;;20.90;99.90;;;;;;5070122;28;20463;-63
2022/09/15 07:18:45;;;;;;;10.23;2.33;;;20.60;99.90;;;;;;5069551;28;20496;-63
2022/09/15 07:21:13;;;;;;;12.45;2.70;;;20.50;99.90;;;;;;5070317;28;20041;-64
2022/09/15 07:23:43;;;;;;;11.35;1.98;;;20.40;99.90;;;;;;5071378;28;20051;-64
2022/09/15 07:26:27;;;;;;;8.63;2.15;;;20.50;99.90;;;;;;5073049;28;20048;-63
2022/09/15 07:29:02;;;;;;;13.27;2.60;;;19.90;99.90;;;;;;5071421;28;20216;-64
2022/09/15 07:31:32;;;;;;;6.82;2.28;;;20.00;99.90;;;;;;5072092;28;20087;-63
2022/09/15 07:33:59;;;;;;;6.57;2.10;;;19.70;99.90;;;;;;5071121;28;20076;-64
2022/09/15 07:36:26;;;;;;;7.53;2.00;;;18.90;99.90;;;;;;5056372;28;20045;-63
2022/09/15 07:38:52;;;;;;;11.80;2.25;;;19.10;99.90;;;;;;5061412;28;20449;-65
2022/09/15 07:41:20;;;;;;;10.23;2.30;;;18.90;99.90;;;;;;5075130;28;20036;-65
2022/09/15 07:43:53;;;;;;;7.97;2.20;;;18.40;99.90;;;;;;5076109;28;20073;-64
2022/09/15 07:46:22;;;;;;;9.60;2.00;;;18.90;99.90;;;;;;5074253;28;20056;-64
2022/09/15 07:48:52;;;;;;;9.45;1.98;;;18.70;99.90;;;;;;5076406;28;20032;-64
2022/09/15 07:51:18;;;;;;;7.28;2.05;;;18.50;99.90;;;;;;5075049;28;20052;-65
2022/09/15 07:53:55;;;;;;;10.65;2.20;;;18.70;99.90;;;;;;5076245;28;20048;-57
2022/09/15 07:56:23;;;;;;;10.57;3.10;;;18.80;99.90;;;;;;5076320;28;20045;-57
2022/09/15 07:58:51;;;;;;;10.20;1.90;;;18.60;99.90;;;;;;5075803;28;20071;-58
2022/09/15 08:01:18;;;;;;;10.00;2.65;;;17.90;99.90;;;;;;5074842;28;20029;-63
2022/09/15 08:03:49;;;;;;;8.95;1.95;;;18.40;99.90;;;;;;5074464;28;20047;-63
2022/09/15 08:06:18;;;;;;;9.88;2.10;;;18.20;99.90;;;;;;5074680;28;20047;-64
2022/09/15 08:08:44;;;;;;;14.77;2.05;;;18.00;99.90;;;;;;5070600;28;20056;-63
2022/09/15 08:11:18;;;;;;;11.02;2.60;;;18.10;99.90;;;;;;5074790;28;20084;-64
2022/09/15 08:13:49;;;;;;;11.20;1.88;;;18.90;99.90;;;;;;5071556;28;20547;-64
2022/09/15 08:16:19;;;;;;;7.55;1.67;;;18.50;99.90;;;;;;5074382;28;20330;-64
2022/09/15 08:18:46;;;;;;;6.60;1.60;;;18.30;99.90;;;;;;5072147;28;20436;-64
2022/09/15 08:21:19;;;;;;;10.45;2.00;;;18.40;99.90;;;;;;5073306;28;20068;-64
2022/09/15 08:23:45;;;;;;;9.43;2.00;;;;;;;;;;5073437;28;20035;-63
2022/09/15 08:26:11;;;;;;;6.32;1.80;;;18.10;99.90;;;;;;5074085;28;20098;-63
2022/09/15 08:28:37;;;;;;;7.22;1.70;;;18.50;99.90;;;;;;5074022;28;20447;-63
2022/09/15 08:31:10;;;;;;;10.38;1.63;;;18.40;99.90;;;;;;5070408;28;20044;-63
2022/09/15 08:33:38;;;;;;;8.05;1.90;;;18.60;99.90;;;;;;5071134;28;20056;-64
2022/09/15 08:36:09;;;;;;;10.35;1.70;;;18.70;99.90;;;;;;5073983;28;20360;-64
2022/09/15 08:38:41;;;;;;;4.15;1.40;;;19.10;99.90;;;;;;5074334;28;20105;-57
2022/09/15 08:41:26;;;;;;;7.95;1.70;;;18.80;99.90;;;;;;5074192;28;20588;-57
2022/09/15 08:43:55;;;;;;;6.35;1.67;;;19.50;99.90;;;;;;5073148;28;20619;-57
2022/09/15 08:46:28;;;;;;;11.13;1.80;;;19.60;99.90;;;;;;5071879;28;20083;-57
2022/09/15 08:49:08;;;;;;;8.50;1.70;;;19.90;99.90;;;;;;5070724;28;20059;-57
2022/09/15 08:51:51;;;;;;;6.75;1.70;;;20.00;99.90;;;;;;5072989;28;20051;-57
2022/09/15 08:54:27;;;;;;;6.07;1.80;;;20.00;99.90;;;;;;5072154;28;20060;-57
2022/09/15 08:56:56;;;;;;;7.00;1.95;;;20.60;99.90;;;;;;5072245;28;20068;-57
2022/09/15 08:59:27;;;;;;;8.00;1.83;;;19.80;99.90;;;;;;5073035;28;20029;-59
2022/09/15 09:02:15;;;;;;;6.82;1.40;;;19.60;99.90;;;;;;5074131;28;20473;-57
2022/09/15 09:04:55;;;;;;;7.32;1.90;;;19.20;99.90;;;;;;5074216;28;20428;-57
2022/09/15 09:07:35;;;;;;;6.40;1.80;;;19.50;99.90;;;;;;5074155;28;20032;-57
2022/09/15 09:10:18;;;;;;;4.88;1.48;;;20.10;99.90;;;;;;5073888;28;20052;-57
2022/09/15 09:13:09;;;;;;;6.57;1.50;;;20.20;99.90;;;;;;5069207;28;20056;-57
2022/09/15 09:16:02;;;;;;;4.60;1.52;;;20.30;99.90;;;;;;5065700;28;20388;-57
2022/09/15 09:18:31;;;;;;;9.23;2.00;;;20.50;99.90;;;;;;5072602;28;20103;-57
2022/09/15 09:21:12;;;;;;;5.72;1.50;;;21.20;99.90;;;;;;5073774;28;20400;-57
2022/09/15 09:23:51;;;;;;;8.20;1.73;;;17.30;99.90;;;;;;5073067;28;20124;-57
2022/09/15 09:26:18;;;;;;;8.40;1.65;;;20.70;99.90;;;;;;5073072;28;20081;-57
2022/09/15 09:28:51;;;;;;;5.65;1.70;;;20.50;99.90;;;;;;5071180;28;20036;-57
2022/09/15 09:31:21;;;;;;;5.47;1.58;;;20.30;99.90;;;;;;5073092;28;20043;-57
2022/09/15 09:33:50;;;;;;;9.55;1.60;;;20.40;99.90;;;;;;5070627;28;20047;-57
2022/09/15 09:36:16;;;;;;;6.53;1.70;;;21.00;99.90;;;;;;5071963;28;20044;-57
2022/09/15 09:38:47;;;;;;;8.88;1.50;;;20.90;99.90;;;;;;5070745;28;20041;-57
2022/09/15 09:41:14;;;;;;;6.30;1.75;;;21.00;99.90;;;;;;5073045;28;20040;-57
2022/09/15 09:43:42;;;;;;;7.43;1.55;;;21.40;99.90;;;;;;5070790;28;20033;-57
2022/09/15 09:46:15;;;;;;;8.20;1.42;;;21.40;99.80;;;;;;5072887;28;20044;-57
2022/09/15 09:48:58;;;;;;;5.53;1.63;;;21.20;95.10;;;;;;5071340;28;20044;-57
2022/09/15 09:51:52;;;;;;;7.57;1.83;;;21.20;98.70;;;;;;5071487;28;20400;-57
2022/09/15 09:54:20;;;;;;;7.05;2.35;;;21.10;98.70;;;;;;5067794;28;20480;-57
2022/09/15 09:56:48;;;;;;;5.53;1.55;;;21.20;98.30;;;;;;5071974;28;20040;-57
2022/09/15 09:59:32;;;;;;;4.38;1.33;;;20.90;97.70;;;;;;5072781;28;20028;-57
2022/09/15 10:02:10;;;;;;;5.88;1.40;;;20.80;97.90;;;;;;5070256;28;20488;-57
2022/09/15 10:04:39;;;;;;;6.35;1.55;;;20.60;98.10;;;;;;5070779;28;20058;-57
2022/09/15 10:07:06;;;;;;;7.15;1.42;;;20.60;98.00;;;;;;5068700;28;20033;-58
2022/09/15 10:09:32;;;;;;;7.85;1.52;;;20.80;98.20;;;;;;5072454;28;20055;-57
2022/09/15 10:12:00;;;;;;;5.28;1.50;;;20.40;99.20;;;;;;5072846;28;20036;-57
2022/09/15 10:14:30;;;;;;;5.25;1.50;;;21.00;98.30;;;;;;5072916;28;20072;-57
2022/09/15 10:17:07;;;;;;;5.78;1.48;;;21.20;97.50;;;;;;5071061;28;20040;-57
2022/09/15 10:19:45;;;;;;;6.25;1.42;;;21.00;99.30;;;;;;5063690;28;20400;-57
2022/09/15 10:22:30;;;;;;;4.00;1.33;;;20.90;97.30;;;;;;5071343;28;20029;-57
2022/09/15 10:24:57;;;;;;;9.55;1.58;;;20.90;93.70;;;;;;5070099;28;20035;-57
2022/09/15 10:27:35;;;;;;;5.93;1.50;;;20.60;98.10;;;;;;5072052;28;20108;-57
2022/09/15 10:30:12;;;;;;;7.00;1.75;;;20.60;92.70;;;;;;5069044;28;20052;-57
2022/09/15 10:32:42;;;;;;;4.20;1.48;;;20.50;93.70;;;;;;5064971;28;20067;-57
2022/09/15 10:35:13;;;;;;;6.47;1.30;;;20.30;94.00;;;;;;5071014;28;20060;-57
2022/09/15 10:38:10;;;;;;;4.57;1.30;;;20.40;98.20;;;;;;5071841;28;20102;-57
2022/09/15 10:41:04;;;;;;;4.15;1.30;;;19.90;99.20;;;;;;5071136;28;20033;-57
2022/09/15 10:43:52;;;;;;;4.22;1.50;;;20.10;98.80;;;;;;5071285;28;20049;-57
2022/09/15 10:46:39;;;;;;;4.68;1.50;;;20.30;99.00;;;;;;5072794;28;20052;-57
2022/09/15 10:49:48;;;;;;;5.32;1.52;;;20.40;98.40;;;;;;5070642;28;20185;-57
2022/09/15 10:52:32;;;;;;;5.05;1.67;;;20.60;98.10;;;;;;5066934;28;20175;-57
2022/09/15 10:54:57;;;;;;;6.55;1.60;;;20.50;97.80;;;;;;5061981;28;20067;-57
2022/09/15 10:58:05;;;;;;;9.63;1.60;;;20.60;97.80;;;;;;5050789;28;20045;-57
2022/09/15 11:00:41;;;;;;;6.93;1.63;;;20.60;97.10;;;;;;4951565;29;20043;-57
2022/09/15 11:03:24;;;;;;;7.13;1.40;;;21.00;95.80;;;;;;4951510;29;20137;-58
2022/09/15 11:06:05;;;;;;;2.88;1.30;;;20.90;95.20;;;;;;4952372;28;20483;-57
2022/09/15 11:09:09;;;;;;;3.38;1.00;;;20.80;95.70;;;;;;4952490;28;20547;-57
2022/09/15 11:11:50;;;;;;;4.53;1.00;;;20.90;90.60;;;;;;4952659;28;20047;-57
2022/09/15 11:14:39;;;;;;;6.65;1.27;;;20.80;90.60;;;;;;4951087;29;20408;-57
2022/09/15 11:17:07;;;;;;;5.00;1.38;;;20.60;90.30;;;;;;4932576;29;20492;-57
2022/09/15 11:19:45;;;;;;;5.90;1.02;;;20.50;91.20;;;;;;4950683;28;20039;-57
2022/09/15 11:22:18;;;;;;;4.30;1.40;;;19.90;95.40;;;;;;4951349;28;20052;-57
2022/09/15 11:24:57;;;;;;;7.57;1.40;;;20.20;91.30;;;;;;4951315;28;20051;-57
2022/09/15 11:27:34;;;;;;;6.60;1.70;;;19.90;96.50;;;;;;4961473;28;20125;-57
2022/09/15 11:30:13;;;;;;;4.13;1.27;;;19.80;96.40;;;;;;4974113;28;20062;-57
2022/09/15 11:32:54;;;;;;;5.05;1.67;;;19.80;91.90;;;;;;4973787;28;20581;-57
2022/09/15 11:35:48;;;;;;;6.95;1.60;;;19.60;98.80;;;;;;4978497;28;20042;-57
2022/09/15 11:38:35;;;;;;;6.80;1.88;;;22.80;99.90;;;;;;5061489;28;20512;-58
2022/09/15 11:41:18;;;;;;;7.30;1.70;;;19.10;95.90;;;;;;5069667;28;20412;-57
2022/09/15 11:44:12;;;;;;;7.53;1.63;;;18.60;99.90;;;;;;5071898;28;20036;-57
2022/09/15 11:47:00;;;;;;;3.72;1.55;;;18.50;99.90;;;;;;5071436;28;20036;-57
2022/09/15 11:49:55;;;;;;;7.60;1.50;;;18.40;99.90;;;;;;5069457;28;20036;-58
2022/09/15 11:52:30;;;;;;;12.45;1.83;;;19.10;99.90;;;;;;5070909;28;20039;-57
2022/09/15 11:55:13;;;;;;;4.43;1.27;;;18.70;99.90;;;;;;5071520;28;20048;-57
2022/09/15 11:57:49;;;;;;;10.65;1.95;;;19.50;99.90;;;;;;5070438;28;20039;-57
2022/09/15 12:00:15;;;;;;;4.72;1.35;;;16.20;99.90;;;;;;5071480;28;20389;-57
2022/09/15 12:02:53;;;;;;;5.88;1.70;;;19.20;99.90;;;;;;5071579;28;20452;-57
2022/09/15 12:05:25;;;;;;;5.43;1.40;;;19.10;99.90;;;;;;5071124;28;20138;-57
2022/09/15 12:07:54;;;;;;;4.93;1.50;;;18.90;99.90;;;;;;5071415;28;20040;-57
2022/09/15 12:10:42;;;;;;;6.88;1.75;;;18.50;99.90;;;;;;5071348;28;20079;-57
2022/09/15 12:13:16;;;;;;;6.80;1.63;;;18.40;99.90;;;;;;5070825;28;20091;-57
2022/09/15 12:15:44;;;;;;;6.70;1.60;;;18.60;99.90;;;;;;5071312;28;20047;-57
2022/09/15 12:18:37;;;;;;;5.97;1.45;;;18.70;99.90;;;;;;5067422;28;20060;-58
2022/09/15 12:21:13;;;;;;;7.43;1.90;;;19.10;99.90;;;;;;5072913;28;20082;-58
2022/09/15 12:24:15;;;;;;;5.35;1.70;;;18.80;99.90;;;;;;5074615;28;20132;-57
2022/09/15 12:26:42;;;;;;;6.55;1.60;;;19.30;99.90;;;;;;5074283;28;20047;-57
2022/09/15 12:29:25;;;;;;;7.53;1.92;;;19.60;99.90;;;;;;5074156;28;20083;-57
2022/09/15 12:32:13;;;;;;;7.75;1.88;;;19.80;99.90;;;;;;5074909;28;20038;-57
2022/09/15 12:34:38;;;;;;;9.35;1.92;;;21.10;99.90;;;;;;5074207;28;20040;-57
2022/09/15 12:37:13;;;;;;;7.82;2.10;;;20.10;99.90;;;;;;5074009;28;20052;-57
2022/09/15 12:39:41;;;;;;;6.80;1.63;;;20.00;99.90;;;;;;5074545;28;20044;-57
2022/09/15 12:42:22;;;;;;;6.25;1.52;;;19.90;99.90;;;;;;5072753;28;20033;-57
2022/09/15 12:44:54;;;;;;;6.50;2.20;;;20.20;98.30;;;;;;5074198;28;20036;-57
2022/09/15 12:47:36;;;;;;;5.97;1.83;;;20.70;99.90;;;;;;5074138;28;20040;-57
2022/09/15 12:50:18;;;;;;;4.53;1.60;;;20.70;99.90;;;;;;5070638;28;20041;-57
2022/09/15 12:52:56;;;;;;;3.83;1.25;;;20.60;96.90;;;;;;5074146;28;20037;-57
2022/09/15 12:55:56;;;;;;;5.35;1.13;;;20.30;99.10;;;;;;5074111;28;20476;-57
2022/09/15 12:58:39;;;;;;;4.90;1.25;;;20.00;98.70;;;;;;5069728;28;20039;-57
2022/09/15 13:01:25;;;;;;;2.78;1.30;;;20.30;93.10;;;;;;5072084;28;20496;-57
2022/09/15 13:03:56;;;;;;;3.50;1.20;;;20.50;97.60;;;;;;5074091;28;20392;-57
2022/09/15 13:06:30;;;;;;;3.83;1.33;;;20.20;97.40;;;;;;5073863;28;20048;-57
2022/09/15 13:09:02;;;;;;;4.63;1.20;;;20.60;92.80;;;;;;5073714;28;20083;-57
2022/09/15 13:11:41;;;;;;;4.90;1.30;;;20.80;96.20;;;;;;5073901;28;20036;-57
2022/09/15 13:14:36;;;;;;;4.80;1.40;;;20.70;96.80;;;;;;5072528;28;20496;-57
2022/09/15 13:17:15;;;;;;;4.33;1.03;;;21.00;92.30;;;;;;5072671;28;20055;-57
2022/09/15 13:19:45;;;;;;;4.05;1.63;;;21.10;91.40;;;;;;5073655;28;20777;-57
2022/09/15 13:22:15;;;;;;;4.28;1.40;;;21.30;96.10;;;;;;5072793;28;20048;-57